Disclaimer

Please do not use the information listed here in-flight or in-navigation, as they are not provided to us by the airports but are provided by volunteers, so they might be outdated.

Search


Regions


Airport information page

Radio informations:
Tower (TWR) - 124.0 MHz
APRON - 122.85 MHz
JOHANNESBURG APP - 123.7 MHz

Airport informations:
Latitude: 25° 56' 18.65" S
Longitude: 027° 55' 34.08" E
Elevation: 4517 feet - 1377 meters
Operating hours: N/A
Operating agency: Civil government, landing fees and diplomatic clearance may be required
Timezone: UTC+2
Fuel: Jet A1, without icing nhibitor.

100/130 MIL Spec, low lead, aviation gasoline (BLUE)

Runway information:
06R/24L - 5775 x 49 feet< - >1760 x 15 meters
06L/24R - 10000 x 75 feet< - >3048 x 23 meters

Recent METARs:
FALA 130400Z 08003KT 030V100 CAVOK 18/08 Q1025 NOSIG
FALA 130400Z 08003KT 030V100 CAVOK 18/08 Q1025 NOSIG
FALA 130500Z VRB02KT CAVOK 19/09 Q1025 NOSIG

Airport on the map: